Time;durP1;ratioP1;P1;durP2;ratioP2;P2;SDS_P1;SDS_P2;PMS_P1;PMS_P2;Temp;Humidity;BMP_temperature;BMP_pressure;BME280_temperature;BME280_humidity;BME280_pressure;Samples;Min_cycle;Max_cycle;Signal;HPM_P1;HPM_P2
2021/03/21 00:00:33;;;;;;;10.48;6.75;;;3.20;99.90;;;;;;5089098;28;20055;-71
2021/03/21 00:03:00;;;;;;;6.65;5.85;;;3.20;99.90;;;;;;5093274;28;20023;-71
2021/03/21 00:05:26;;;;;;;6.57;5.13;;;3.20;99.90;;;;;;5092198;28;20035;-71
2021/03/21 00:07:58;;;;;;;6.97;5.10;;;3.20;99.90;;;;;;5087640;28;20056;-72
2021/03/21 00:10:25;;;;;;;10.38;6.80;;;3.30;99.90;;;;;;5089723;28;20046;-71
2021/03/21 00:12:52;;;;;;;8.45;5.28;;;3.20;99.90;;;;;;5093054;28;20028;-71
2021/03/21 00:15:19;;;;;;;9.35;6.00;;;3.20;99.90;;;;;;5094845;28;20136;-72
2021/03/21 00:17:51;;;;;;;5.75;5.13;;;3.20;99.90;;;;;;5090808;28;20024;-73
2021/03/21 00:20:19;;;;;;;7.97;5.15;;;3.20;99.90;;;;;;5088812;28;20418;-72
2021/03/21 00:22:45;;;;;;;6.70;5.95;;;3.20;99.90;;;;;;5089789;28;20031;-71
2021/03/21 00:25:14;;;;;;;8.77;5.05;;;3.10;99.90;;;;;;5092926;28;20012;-71
2021/03/21 00:27:39;;;;;;;7.45;5.07;;;3.10;99.90;;;;;;5090812;28;20153;-71
2021/03/21 00:30:10;;;;;;;7.20;5.32;;;3.10;99.90;;;;;;5091964;28;20020;-71
2021/03/21 00:32:36;;;;;;;6.45;4.63;;;3.10;99.90;;;;;;5091344;28;20409;-72
2021/03/21 00:35:04;;;;;;;9.73;5.55;;;3.00;99.90;;;;;;5090025;28;20028;-72
2021/03/21 00:37:30;;;;;;;6.65;5.72;;;3.00;99.90;;;;;;5091020;28;20030;-72
2021/03/21 00:39:56;;;;;;;5.97;5.15;;;3.00;99.90;;;;;;5093060;28;20020;-72
2021/03/21 00:42:22;;;;;;;6.65;5.25;;;3.00;99.90;;;;;;5090611;28;20110;-71
2021/03/21 00:44:47;;;;;;;6.55;4.95;;;3.00;99.90;;;;;;5090371;28;20031;-71
2021/03/21 00:47:13;;;;;;;7.50;5.43;;;3.00;99.90;;;;;;5091191;28;20028;-71
2021/03/21 00:49:39;;;;;;;4.80;4.03;;;3.00;99.90;;;;;;5084521;28;20391;-71
2021/03/21 00:52:05;;;;;;;6.28;4.93;;;3.00;99.90;;;;;;5090656;28;20036;-71
2021/03/21 00:54:30;;;;;;;7.82;4.80;;;3.00;99.90;;;;;;5092502;28;20032;-71
2021/03/21 00:56:56;;;;;;;7.03;5.05;;;3.00;99.90;;;;;;5090998;28;20034;-71
2021/03/21 00:59:22;;;;;;;7.82;5.47;;;3.00;99.90;;;;;;5088887;28;20050;-71
2021/03/21 01:01:48;;;;;;;6.47;5.85;;;2.90;99.90;;;;;;5086954;28;20043;-72
2021/03/21 01:04:13;;;;;;;9.98;5.80;;;2.90;99.90;;;;;;5090554;28;20020;-71
2021/03/21 01:06:39;;;;;;;5.22;4.38;;;2.90;99.90;;;;;;5091323;28;20415;-71
2021/03/21 01:09:11;;;;;;;5.78;4.70;;;2.90;99.90;;;;;;5091712;28;20054;-71
2021/03/21 01:11:38;;;;;;;6.32;4.47;;;2.90;99.90;;;;;;5088763;28;20082;-75
2021/03/21 01:14:06;;;;;;;9.98;4.78;;;2.80;99.90;;;;;;5088523;28;20423;-71
2021/03/21 01:16:36;;;;;;;8.98;5.28;;;2.90;99.90;;;;;;5089556;28;20085;-71
2021/03/21 01:19:03;;;;;;;5.80;5.18;;;2.90;99.90;;;;;;5092300;28;20023;-71
2021/03/21 01:21:32;;;;;;;5.47;4.85;;;2.90;99.90;;;;;;5089841;28;20024;-71
2021/03/21 01:23:58;;;;;;;10.20;5.90;;;2.90;99.90;;;;;;5089586;28;20169;-72
2021/03/21 01:26:26;;;;;;;7.25;4.40;;;2.90;99.90;;;;;;5090810;28;20098;-71
2021/03/21 01:28:55;;;;;;;4.80;4.32;;;2.90;99.90;;;;;;5089280;28;20433;-70
2021/03/21 01:31:22;;;;;;;13.07;4.03;;;2.90;99.90;;;;;;5090652;28;20035;-70
2021/03/21 01:33:48;;;;;;;5.22;4.35;;;2.90;99.90;;;;;;5087982;28;20031;-71
2021/03/21 01:36:18;;;;;;;6.68;5.25;;;2.80;99.90;;;;;;5090201;28;20024;-71
2021/03/21 01:38:44;;;;;;;10.95;5.50;;;2.80;99.90;;;;;;5087787;28;20063;-71
2021/03/21 01:41:19;;;;;;;10.48;4.72;;;2.80;99.90;;;;;;5090762;28;20031;-71
2021/03/21 01:43:46;;;;;;;8.23;5.85;;;2.80;99.90;;;;;;5088083;28;20019;-71
2021/03/21 01:46:36;;;;;;;9.38;5.15;;;2.80;99.90;;;;;;5091317;28;20056;-71
2021/03/21 01:49:14;;;;;;;4.85;4.40;;;2.80;99.90;;;;;;5089458;28;20028;-72
2021/03/21 01:51:40;;;;;;;6.10;5.50;;;2.80;99.90;;;;;;5091183;28;20036;-71
2021/03/21 01:54:13;;;;;;;9.48;6.22;;;2.80;99.90;;;;;;5088647;28;20044;-72
2021/03/21 01:56:40;;;;;;;6.95;5.72;;;2.70;99.90;;;;;;5091409;28;20114;-71
2021/03/21 01:59:18;;;;;;;5.30;4.68;;;2.70;99.90;;;;;;5090274;28;20443;-71
2021/03/21 02:01:43;;;;;;;10.13;5.30;;;2.70;99.90;;;;;;5091194;28;20104;-72
2021/03/21 02:04:10;;;;;;;7.47;4.45;;;2.70;99.90;;;;;;5086472;28;20032;-72
2021/03/21 02:06:52;;;;;;;6.35;5.40;;;2.70;99.90;;;;;;5094722;28;20052;-71
2021/03/21 02:09:26;;;;;;;7.10;4.68;;;2.70;99.90;;;;;;5090784;28;20038;-71
2021/03/21 02:12:12;;;;;;;11.32;5.90;;;2.60;99.90;;;;;;5086626;28;20051;-71
2021/03/21 02:14:47;;;;;;;5.88;5.32;;;2.60;99.90;;;;;;5084647;28;20027;-71
2021/03/21 02:17:34;;;;;;;9.77;4.53;;;2.60;99.90;;;;;;5089064;28;20103;-71
2021/03/21 02:20:05;;;;;;;6.65;5.00;;;2.60;99.90;;;;;;5088938;28;20131;-71
2021/03/21 02:22:51;;;;;;;5.93;5.15;;;2.60;99.90;;;;;;5088832;28;20035;-71
2021/03/21 02:25:54;;;;;;;6.38;4.82;;;2.70;99.90;;;;;;5088193;28;20024;-71
2021/03/21 02:28:42;;;;;;;6.47;5.05;;;2.70;99.90;;;;;;5089146;28;20103;-71
2021/03/21 02:31:20;;;;;;;8.95;6.13;;;2.70;99.90;;;;;;5089458;28;20020;-69
2021/03/21 02:34:12;;;;;;;6.30;4.50;;;2.60;99.90;;;;;;5088367;28;20399;-70
2021/03/21 02:36:52;;;;;;;5.95;4.65;;;2.70;99.90;;;;;;5089058;28;20016;-71
2021/03/21 02:39:36;;;;;;;7.43;4.85;;;2.50;99.90;;;;;;5088913;28;20020;-69
2021/03/21 02:42:10;;;;;;;7.78;6.65;;;2.50;99.90;;;;;;5089028;28;20031;-70
2021/03/21 02:44:49;;;;;;;6.28;5.28;;;2.50;99.90;;;;;;5084399;28;20487;-71
2021/03/21 02:47:21;;;;;;;9.43;5.10;;;2.50;99.90;;;;;;5079518;28;20020;-71
2021/03/21 02:49:50;;;;;;;8.20;5.70;;;2.40;99.90;;;;;;5088653;28;20024;-70
2021/03/21 02:52:29;;;;;;;8.13;5.00;;;2.30;99.90;;;;;;5088944;28;20027;-70
2021/03/21 02:55:31;;;;;;;7.57;5.40;;;2.30;99.90;;;;;;5088423;28;20012;-70
2021/03/21 02:58:27;;;;;;;8.63;5.97;;;2.30;99.90;;;;;;5088165;28;20036;-71
2021/03/21 03:01:27;;;;;;;6.50;4.63;;;2.30;99.90;;;;;;5085922;28;20102;-71
2021/03/21 03:03:57;;;;;;;9.38;6.05;;;2.30;99.90;;;;;;5077364;28;20035;-71
2021/03/21 03:06:32;;;;;;;6.05;4.60;;;2.30;99.90;;;;;;5087320;28;20020;-71
2021/03/21 03:09:21;;;;;;;6.82;6.15;;;2.30;99.90;;;;;;5084431;28;20031;-72
2021/03/21 03:11:53;;;;;;;7.28;6.10;;;2.30;99.90;;;;;;5087256;28;20025;-71
2021/03/21 03:14:30;;;;;;;10.50;5.35;;;2.30;99.90;;;;;;5089244;28;20907;-71
2021/03/21 03:17:14;;;;;;;8.05;6.50;;;2.20;99.90;;;;;;5090872;28;20063;-71
2021/03/21 03:19:55;;;;;;;4.95;4.38;;;2.20;99.90;;;;;;5085618;28;20024;-71
2021/03/21 03:22:40;;;;;;;6.68;4.53;;;2.20;99.90;;;;;;5088071;28;20024;-71
2021/03/21 03:25:06;;;;;;;8.65;5.55;;;2.20;99.90;;;;;;5085854;28;20112;-71
2021/03/21 03:27:39;;;;;;;11.45;6.53;;;2.20;99.90;;;;;;5089663;28;20058;-69
2021/03/21 03:30:16;;;;;;;8.25;6.70;;;2.20;99.90;;;;;;5087991;28;20031;-70
2021/03/21 03:32:42;;;;;;;10.45;5.82;;;2.10;99.90;;;;;;5089298;28;20027;-72
2021/03/21 03:35:11;;;;;;;11.38;6.22;;;2.10;99.90;;;;;;5087087;28;20032;-71
2021/03/21 03:37:37;;;;;;;10.27;6.28;;;2.10;99.90;;;;;;5083898;28;20019;-69
2021/03/21 03:40:07;;;;;;;7.15;5.32;;;2.10;99.90;;;;;;5087970;28;20634;-72
2021/03/21 03:43:03;;;;;;;6.00;5.38;;;2.10;99.90;;;;;;5088978;28;20060;-71
2021/03/21 03:45:53;;;;;;;8.55;5.80;;;2.10;99.90;;;;;;5089196;28;20069;-71
2021/03/21 03:48:43;;;;;;;8.25;5.85;;;2.00;99.90;;;;;;5087887;28;20483;-71
2021/03/21 03:51:27;;;;;;;11.43;6.88;;;2.10;99.90;;;;;;5086876;28;20035;-72
2021/03/21 03:53:56;;;;;;;7.43;5.65;;;2.10;99.90;;;;;;5085390;28;20027;-71
2021/03/21 03:56:27;;;;;;;5.75;5.25;;;2.00;99.90;;;;;;5090211;28;20051;-71
2021/03/21 03:59:23;;;;;;;6.25;5.65;;;2.00;99.90;;;;;;5093838;28;20348;-70
2021/03/21 04:01:56;;;;;;;8.32;6.05;;;2.00;99.90;;;;;;5083827;28;20080;-70
2021/03/21 04:04:34;;;;;;;11.82;6.60;;;2.00;99.90;;;;;;5090438;28;20036;-71
2021/03/21 04:07:15;;;;;;;7.03;5.38;;;2.00;99.90;;;;;;5093211;28;20027;-71
2021/03/21 04:09:59;;;;;;;7.50;6.20;;;2.00;99.90;;;;;;5091233;28;20031;-71
2021/03/21 04:12:31;;;;;;;9.82;5.55;;;2.10;99.90;;;;;;5085891;28;20168;-71
2021/03/21 04:15:15;;;;;;;4.20;3.53;;;2.00;99.90;;;;;;5091403;28;20020;-70
2021/03/21 04:18:06;;;;;;;7.22;5.93;;;2.00;99.90;;;;;;5088454;28;20020;-72
2021/03/21 04:20:42;;;;;;;6.43;5.00;;;2.00;99.90;;;;;;5087191;28;20020;-71
2021/03/21 04:23:36;;;;;;;7.45;6.30;;;2.00;99.90;;;;;;5091059;28;20468;-71
2021/03/21 04:26:07;;;;;;;8.85;6.63;;;2.10;99.90;;;;;;5091901;28;20063;-71
2021/03/21 04:28:45;;;;;;;7.65;5.38;;;2.10;99.90;;;;;;5092362;28;20028;-71
2021/03/21 04:31:14;;;;;;;8.82;5.40;;;2.10;99.90;;;;;;5091888;28;20020;-70
2021/03/21 04:33:51;;;;;;;5.78;4.32;;;2.10;99.90;;;;;;5089811;28;20059;-71
2021/03/21 04:36:29;;;;;;;5.40;4.60;;;2.20;99.90;;;;;;5091637;28;20073;-70
2021/03/21 04:39:03;;;;;;;7.78;5.07;;;2.20;99.90;;;;;;5091675;28;20021;-70
2021/03/21 04:41:38;;;;;;;7.22;6.18;;;2.20;99.90;;;;;;5088554;28;20054;-71
2021/03/21 04:44:31;;;;;;;10.60;5.05;;;2.30;99.90;;;;;;5089619;28;20036;-72
2021/03/21 04:47:02;;;;;;;10.95;5.47;;;2.20;99.90;;;;;;5091852;28;20030;-72
2021/03/21 04:49:28;;;;;;;5.00;4.50;;;2.20;99.90;;;;;;5090941;28;20028;-71
2021/03/21 04:52:12;;;;;;;6.30;5.22;;;2.20;99.90;;;;;;5090720;28;20024;-71
2021/03/21 04:54:40;;;;;;;5.70;4.72;;;2.20;99.90;;;;;;5086360;28;20126;-71
2021/03/21 04:57:35;;;;;;;5.65;4.35;;;2.20;99.90;;;;;;5090842;28;20636;-72
2021/03/21 05:00:07;;;;;;;6.07;5.38;;;2.30;99.90;;;;;;5090689;28;20038;-70
2021/03/21 05:02:35;;;;;;;5.38;4.85;;;2.30;99.90;;;;;;5090735;28;20581;-71
2021/03/21 05:05:24;;;;;;;7.75;7.00;;;2.20;99.90;;;;;;5090407;28;20130;-71
2021/03/21 05:07:56;;;;;;;6.85;5.25;;;2.30;99.90;;;;;;5090016;28;20034;-71
2021/03/21 05:10:35;;;;;;;6.93;5.70;;;2.30;99.90;;;;;;5091388;28;20024;-71
2021/03/21 05:13:05;;;;;;;9.68;5.35;;;2.30;99.90;;;;;;5092403;28;20097;-71
2021/03/21 05:15:37;;;;;;;8.52;5.40;;;2.30;99.90;;;;;;5090021;28;20031;-70
2021/03/21 05:18:23;;;;;;;9.68;6.60;;;2.30;99.90;;;;;;5091027;28;20036;-71
2021/03/21 05:20:52;;;;;;;8.52;5.30;;;2.30;99.90;;;;;;5081966;28;20036;-70
2021/03/21 05:23:56;;;;;;;6.88;5.07;;;2.30;99.90;;;;;;5083921;28;20173;-71
2021/03/21 05:26:57;;;;;;;10.50;4.75;;;2.30;99.90;;;;;;5088482;28;20032;-71
2021/03/21 05:30:00;;;;;;;6.22;4.93;;;2.30;99.90;;;;;;5089228;28;20036;-71
2021/03/21 05:32:26;;;;;;;5.75;4.88;;;2.30;99.90;;;;;;5090637;28;20542;-71
2021/03/21 05:34:56;;;;;;;8.43;4.93;;;2.30;99.90;;;;;;5083947;28;20032;-71
2021/03/21 05:37:31;;;;;;;4.78;4.38;;;2.30;99.90;;;;;;5086680;28;20484;-71
2021/03/21 05:40:38;;;;;;;6.97;4.28;;;2.40;99.90;;;;;;5087666;28;20031;-72
2021/03/21 05:43:06;;;;;;;5.55;4.78;;;2.40;99.90;;;;;;5089709;28;20024;-71
2021/03/21 05:46:01;;;;;;;4.75;4.35;;;2.40;99.80;;;;;;5090739;28;20074;-71
2021/03/21 05:48:38;;;;;;;7.93;4.97;;;2.30;99.90;;;;;;5067164;28;20044;-71
2021/03/21 05:51:13;;;;;;;8.02;4.72;;;2.30;99.90;;;;;;5090414;28;20399;-71
2021/03/21 05:53:44;;;;;;;8.43;5.55;;;2.30;99.90;;;;;;5088990;28;20016;-71
2021/03/21 05:56:22;;;;;;;7.60;4.82;;;2.30;99.90;;;;;;5076419;28;20016;-71
2021/03/21 05:59:09;;;;;;;6.20;5.20;;;2.30;99.90;;;;;;5090038;28;20028;-72
2021/03/21 06:01:59;;;;;;;8.13;5.70;;;2.30;99.90;;;;;;5087184;28;20534;-71
2021/03/21 06:04:30;;;;;;;7.00;5.03;;;2.30;99.90;;;;;;5079371;28;20093;-70
2021/03/21 06:07:30;;;;;;;8.52;5.70;;;2.30;99.90;;;;;;5087726;28;20020;-69
2021/03/21 06:10:22;;;;;;;7.97;5.18;;;2.30;99.80;;;;;;5088270;28;20024;-70
2021/03/21 06:13:19;;;;;;;11.15;5.70;;;2.30;99.90;;;;;;5089005;28;20039;-69
2021/03/21 06:16:06;;;;;;;6.35;5.75;;;2.40;99.80;;;;;;5086487;28;20027;-70
2021/03/21 06:18:40;;;;;;;11.27;5.88;;;2.40;99.70;;;;;;5087711;28;20176;-70
2021/03/21 06:21:32;;;;;;;5.03;4.55;;;2.40;99.80;;;;;;5088871;28;20024;-72
2021/03/21 06:24:27;;;;;;;6.22;4.80;;;2.40;99.60;;;;;;5087276;28;20093;-71
2021/03/21 06:27:18;;;;;;;7.95;5.13;;;2.50;99.60;;;;;;5088297;28;20430;-71
2021/03/21 06:30:12;;;;;;;5.97;5.37;;;2.50;99.30;;;;;;5061149;28;20410;-70
2021/03/21 06:33:02;;;;;;;6.68;5.07;;;2.50;99.30;;;;;;5090611;28;20028;-70
2021/03/21 06:35:49;;;;;;;13.52;4.95;;;2.60;99.10;;;;;;5088737;28;20020;-71
2021/03/21 06:38:46;;;;;;;10.77;6.03;;;2.60;99.00;;;;;;5083814;28;20053;-70
2021/03/21 06:41:32;;;;;;;6.03;5.43;;;2.70;98.80;;;;;;5081982;28;20051;-70
2021/03/21 06:44:16;;;;;;;5.00;4.50;;;2.80;98.30;;;;;;5090531;28;20111;-70
2021/03/21 06:47:16;;;;;;;8.80;4.63;;;2.90;98.60;;;;;;5090810;28;20077;-70
2021/03/21 06:50:21;;;;;;;6.57;4.13;;;3.00;98.20;;;;;;5043797;28;20032;-70
2021/03/21 06:52:59;;;;;;;6.65;5.22;;;3.10;98.20;;;;;;5090441;28;20379;-70
2021/03/21 06:55:34;;;;;;;5.68;4.78;;;3.10;97.80;;;;;;5089733;28;20016;-69
2021/03/21 06:58:02;;;;;;;6.18;5.57;;;3.20;97.90;;;;;;5090604;28;20157;-70
2021/03/21 07:00:48;;;;;;;5.13;4.65;;;3.30;97.70;;;;;;5089591;28;20032;-70
2021/03/21 07:03:48;;;;;;;7.50;5.25;;;3.20;97.60;;;;;;5090064;28;20024;-70
2021/03/21 07:06:51;;;;;;;8.25;5.80;;;3.40;97.30;;;;;;5087629;28;20031;-70
2021/03/21 07:09:31;;;;;;;;;;;3.40;97.00;;;;;;5089669;28;20047;-70
2021/03/21 07:12:34;;;;;;;6.22;4.05;;;3.40;96.90;;;;;;5087924;28;20069;-71
2021/03/21 07:15:15;;;;;;;5.57;4.20;;;3.40;96.90;;;;;;5089712;28;20031;-70
2021/03/21 07:18:11;;;;;;;6.30;5.28;;;3.60;97.00;;;;;;5088049;28;20032;-71
2021/03/21 07:21:08;;;;;;;5.07;4.20;;;3.50;96.20;;;;;;5089692;28;20506;-70
2021/03/21 07:23:51;;;;;;;7.88;5.30;;;3.50;96.60;;;;;;5089688;28;20532;-70
2021/03/21 07:26:54;;;;;;;7.40;5.82;;;3.60;96.20;;;;;;5090269;28;20403;-72
2021/03/21 07:29:34;;;;;;;15.45;3.85;;;3.70;96.10;;;;;;5089800;28;20805;-71
2021/03/21 07:32:21;;;;;;;5.10;4.28;;;3.80;95.90;;;;;;5094144;28;20441;-71
2021/03/21 07:35:12;;;;;;;12.43;6.03;;;3.80;96.00;;;;;;5092262;28;20459;-71
2021/03/21 07:37:56;;;;;;;8.48;6.50;;;3.80;95.50;;;;;;5093772;28;20081;-70
2021/03/21 07:40:34;;;;;;;5.80;5.25;;;3.80;95.90;;;;;;5093222;28;20039;-71
2021/03/21 07:43:27;;;;;;;8.27;5.03;;;3.80;95.60;;;;;;5093925;28;20032;-71
2021/03/21 07:46:07;;;;;;;6.78;4.50;;;3.90;95.60;;;;;;5093762;28;20051;-70
2021/03/21 07:48:36;;;;;;;6.13;5.38;;;4.00;95.80;;;;;;5093974;28;20020;-70
2021/03/21 07:51:17;;;;;;;6.28;4.97;;;3.90;95.10;;;;;;5094505;28;20051;-71
2021/03/21 07:54:07;;;;;;;6.95;4.97;;;3.90;95.10;;;;;;5092587;28;20020;-72
2021/03/21 07:56:49;;;;;;;5.85;5.05;;;4.10;95.30;;;;;;5089171;28;20030;-70
2021/03/21 07:59:19;;;;;;;5.22;4.68;;;4.00;95.10;;;;;;5091504;28;20129;-71
2021/03/21 08:01:44;;;;;;;6.85;5.10;;;4.10;95.20;;;;;;5092591;28;20418;-70
2021/03/21 08:04:18;;;;;;;6.80;5.88;;;4.30;95.10;;;;;;5093270;28;20103;-71
2021/03/21 08:06:48;;;;;;;6.55;5.57;;;4.20;95.00;;;;;;5092806;28;20028;-70
2021/03/21 08:09:20;;;;;;;5.60;4.80;;;4.40;94.70;;;;;;5086570;28;20103;-70
2021/03/21 08:12:13;;;;;;;6.90;5.70;;;4.30;94.50;;;;;;5091078;28;20024;-70
2021/03/21 08:15:10;;;;;;;7.18;4.18;;;4.30;94.70;;;;;;5093197;28;20038;-71
2021/03/21 08:17:42;;;;;;;8.23;5.72;;;4.60;94.20;;;;;;5087017;28;20043;-69
2021/03/21 08:20:14;;;;;;;;;;;4.60;93.90;;;;;;5093853;28;20016;-69
2021/03/21 08:22:40;;;;;;;6.60;5.43;;;4.80;93.50;;;;;;5092169;28;19978;-68
2021/03/21 08:25:22;;;;;;;5.93;4.72;;;4.80;93.00;;;;;;5092646;28;20055;-71
2021/03/21 08:27:50;;;;;;;8.02;6.22;;;4.80;93.60;;;;;;5093095;28;20101;-68
2021/03/21 08:30:16;;;;;;;7.00;4.53;;;4.70;93.20;;;;;;5092081;28;20741;-67
2021/03/21 08:33:01;;;;;;;8.25;6.45;;;4.70;93.70;;;;;;5094524;28;20051;-69
2021/03/21 08:35:33;;;;;;;6.25;5.68;;;4.90;93.70;;;;;;5096731;28;20039;-68
2021/03/21 08:38:28;;;;;;;5.68;5.07;;;5.20;93.70;;;;;;5094638;28;20020;-69
2021/03/21 08:41:00;;;;;;;7.50;4.15;;;5.00;92.80;;;;;;5083838;28;20114;-68
2021/03/21 08:43:33;;;;;;;7.22;5.68;;;5.00;93.40;;;;;;5075116;28;20107;-68
2021/03/21 08:46:01;;;;;;;6.30;4.80;;;5.20;93.50;;;;;;5086910;28;20036;-68
2021/03/21 08:48:37;;;;;;;5.30;4.78;;;5.30;93.00;;;;;;5093383;28;20026;-69
2021/03/21 08:51:12;;;;;;;9.30;5.07;;;5.40;92.80;;;;;;5086508;28;20107;-71
2021/03/21 08:54:11;;;;;;;5.97;4.40;;;5.20;92.90;;;;;;5089044;28;20020;-71
2021/03/21 08:56:56;;;;;;;7.18;5.88;;;5.20;93.10;;;;;;5081392;28;20021;-70
2021/03/21 08:59:21;;;;;;;6.40;5.10;;;5.40;93.00;;;;;;5078008;28;20384;-72
2021/03/21 09:01:59;;;;;;;8.88;4.40;;;5.40;92.60;;;;;;5075459;28;20021;-71
2021/03/21 09:04:26;;;;;;;5.95;5.15;;;5.10;92.30;;;;;;5091438;28;20020;-72
2021/03/21 09:06:52;;;;;;;5.47;4.63;;;5.00;92.10;;;;;;5091545;28;20020;-69
2021/03/21 09:09:21;;;;;;;4.47;3.95;;;5.00;92.10;;;;;;5087265;28;20035;-68
2021/03/21 09:11:52;;;;;;;7.00;5.90;;;5.10;91.90;;;;;;5084718;28;20033;-68
2021/03/21 09:14:34;;;;;;;6.10;3.90;;;5.10;91.80;;;;;;5088202;28;20028;-68
2021/03/21 09:17:04;;;;;;;;;;;5.40;91.80;;;;;;5094143;28;20048;-71
2021/03/21 09:19:36;;;;;;;5.22;4.72;;;5.40;91.30;;;;;;5092347;28;19908;-68
2021/03/21 09:22:10;;;;;;;4.78;4.38;;;5.40;90.90;;;;;;5092327;28;20113;-69
2021/03/21 09:24:39;;;;;;;5.20;4.72;;;5.40;91.50;;;;;;5091918;28;20383;-69
2021/03/21 09:27:30;;;;;;;6.25;4.72;;;5.40;91.80;;;;;;5090917;28;20514;-71
2021/03/21 09:29:58;;;;;;;7.55;4.65;;;5.40;91.60;;;;;;5091345;28;20032;-69
2021/03/21 09:32:31;;;;;;;4.47;4.05;;;5.70;90.10;;;;;;5082337;28;20552;-70
2021/03/21 09:35:32;;;;;;;10.45;4.82;;;5.70;89.80;;;;;;5090753;28;20082;-69
2021/03/21 09:38:19;;;;;;;6.70;5.35;;;5.60;89.70;;;;;;5074707;28;20066;-71
2021/03/21 09:40:53;;;;;;;8.82;6.03;;;5.60;89.70;;;;;;5122884;27;20028;-70
2021/03/21 09:43:27;;;;;;;6.00;5.22;;;5.80;89.60;;;;;;5087201;28;20028;-70
2021/03/21 09:46:07;;;;;;;5.30;4.88;;;5.90;88.50;;;;;;5091766;28;20032;-70
2021/03/21 09:48:58;;;;;;;4.82;4.22;;;6.00;88.30;;;;;;5088970;28;20356;-70
2021/03/21 09:52:11;;;;;;;5.13;4.32;;;6.00;87.70;;;;;;5080223;28;20032;-70
2021/03/21 09:54:43;;;;;;;7.40;4.55;;;5.90;87.20;;;;;;5090802;28;20016;-69
2021/03/21 09:57:30;;;;;;;7.82;6.00;;;6.00;87.10;;;;;;5091232;28;20023;-70
2021/03/21 10:00:20;;;;;;;6.40;5.55;;;6.30;87.50;;;;;;5087542;28;20099;-71
2021/03/21 10:02:57;;;;;;;5.43;4.18;;;6.20;86.60;;;;;;5087100;28;20034;-69
2021/03/21 10:05:32;;;;;;;6.32;5.15;;;6.00;87.00;;;;;;5091462;28;20112;-70
2021/03/21 10:08:12;;;;;;;6.15;5.28;;;6.30;87.10;;;;;;5091079;28;20386;-71
2021/03/21 10:10:51;;;;;;;7.88;5.28;;;6.20;86.50;;;;;;5091175;28;20016;-70
2021/03/21 10:13:33;;;;;;;7.40;5.57;;;6.00;86.40;;;;;;5090520;28;20050;-69
2021/03/21 10:16:26;;;;;;;6.90;5.30;;;6.30;87.60;;;;;;5090512;28;20494;-69
2021/03/21 10:19:02;;;;;;;6.47;5.85;;;6.60;87.40;;;;;;5090327;28;20101;-70
2021/03/21 10:21:36;;;;;;;5.22;4.72;;;6.60;87.10;;;;;;5090430;28;20032;-70
2021/03/21 10:24:13;;;;;;;8.55;6.55;;;6.80;86.80;;;;;;5089824;28;20031;-70
2021/03/21 10:27:14;;;;;;;8.18;6.45;;;6.80;86.90;;;;;;5087879;28;20020;-70
2021/03/21 10:29:42;;;;;;;6.03;5.07;;;6.70;86.00;;;;;;5076693;28;20028;-69
2021/03/21 10:32:20;;;;;;;7.20;5.55;;;6.70;88.00;;;;;;5076568;28;20364;-70
2021/03/21 10:34:46;;;;;;;5.13;4.60;;;7.00;86.20;;;;;;5090583;28;20124;-70
2021/03/21 10:37:32;;;;;;;8.63;5.85;;;7.10;85.50;;;;;;5089508;28;20619;-68
2021/03/21 10:40:00;;;;;;;9.02;6.47;;;7.10;86.00;;;;;;5090737;28;20024;-70
2021/03/21 10:42:44;;;;;;;5.07;4.60;;;7.40;86.60;;;;;;5091209;28;20027;-70
2021/03/21 10:45:36;;;;;;;6.15;5.55;;;7.20;85.30;;;;;;5090347;28;20072;-70
2021/03/21 10:48:14;;;;;;;8.02;6.90;;;7.10;85.80;;;;;;5087474;28;20028;-69
2021/03/21 10:50:45;;;;;;;8.50;5.90;;;7.10;84.70;;;;;;5081110;28;20028;-68
2021/03/21 10:53:19;;;;;;;9.57;6.50;;;7.20;85.20;;;;;;5086873;28;20058;-70
2021/03/21 10:56:08;;;;;;;9.43;6.78;;;7.10;84.50;;;;;;5080234;28;20031;-70
2021/03/21 10:58:34;;;;;;;8.43;6.38;;;7.20;86.10;;;;;;5084504;28;20020;-68
2021/03/21 11:01:20;;;;;;;7.38;6.57;;;7.30;84.70;;;;;;5087282;28;20494;-69
2021/03/21 11:03:58;;;;;;;8.35;6.85;;;7.10;84.30;;;;;;5081217;28;20498;-69
2021/03/21 11:06:27;;;;;;;9.00;7.95;;;7.20;85.00;;;;;;5078767;28;20025;-68
2021/03/21 11:08:53;;;;;;;7.82;7.05;;;7.20;85.20;;;;;;5082608;28;20021;-70
2021/03/21 11:11:34;;;;;;;9.27;7.88;;;7.20;84.50;;;;;;5085924;28;20063;-69
2021/03/21 11:14:21;;;;;;;9.45;7.70;;;7.30;86.00;;;;;;5081677;28;20016;-69
2021/03/21 11:17:26;;;;;;;11.13;6.93;;;7.50;85.40;;;;;;5083352;28;20032;-70
2021/03/21 11:19:56;;;;;;;8.05;7.25;;;7.60;85.80;;;;;;5066421;28;20047;-67
2021/03/21 11:22:37;;;;;;;8.68;7.78;;;7.90;87.00;;;;;;5089930;28;20027;-69
2021/03/21 11:25:05;;;;;;;9.02;7.22;;;8.20;85.30;;;;;;5090666;28;20380;-68
2021/03/21 11:27:33;;;;;;;6.28;5.68;;;8.20;84.80;;;;;;5090543;28;20028;-69
2021/03/21 11:30:13;;;;;;;8.00;5.82;;;8.20;84.10;;;;;;5090186;28;20016;-68
2021/03/21 11:32:40;;;;;;;8.50;6.93;;;8.20;84.70;;;;;;5084561;28;20511;-71
2021/03/21 11:35:20;;;;;;;8.60;7.43;;;7.90;84.50;;;;;;5091133;28;20081;-70
2021/03/21 11:37:46;;;;;;;9.85;7.38;;;7.70;84.20;;;;;;5091444;28;20034;-71
2021/03/21 11:40:32;;;;;;;8.57;7.68;;;7.70;86.00;;;;;;5092307;28;20028;-70
2021/03/21 11:43:19;;;;;;;9.77;7.32;;;8.00;84.80;;;;;;5081343;28;20521;-70
2021/03/21 11:45:46;;;;;;;8.95;8.05;;;7.80;84.10;;;;;;5088908;28;20032;-71
2021/03/21 11:48:33;;;;;;;9.52;6.78;;;7.90;85.80;;;;;;5082361;28;20090;-71
2021/03/21 11:51:00;;;;;;;9.52;7.43;;;8.30;85.30;;;;;;5089538;28;20024;-71
2021/03/21 11:53:31;;;;;;;9.70;7.97;;;8.40;84.50;;;;;;5090959;28;20039;-70
2021/03/21 11:56:07;;;;;;;8.75;7.45;;;8.50;84.40;;;;;;5090740;28;20502;-70
2021/03/21 11:58:55;;;;;;;8.27;6.93;;;8.20;83.00;;;;;;5092192;28;20088;-69
2021/03/21 12:01:42;;;;;;;9.07;7.55;;;8.20;84.50;;;;;;5077210;28;20388;-69
2021/03/21 12:04:20;;;;;;;9.73;8.10;;;8.40;84.00;;;;;;5081712;28;20019;-69
2021/03/21 12:06:51;;;;;;;8.05;6.90;;;8.30;83.50;;;;;;5084507;28;20028;-69
2021/03/21 12:09:52;;;;;;;7.97;7.10;;;8.20;82.90;;;;;;5082737;28;20514;-70
2021/03/21 12:12:30;;;;;;;9.90;8.70;;;8.20;83.70;;;;;;5044273;28;20040;-70
2021/03/21 12:14:57;;;;;;;9.63;7.95;;;8.20;84.10;;;;;;5084352;28;20368;-69
2021/03/21 12:17:22;;;;;;;8.88;7.95;;;8.40;84.00;;;;;;5073731;28;20400;-70
2021/03/21 12:19:49;;;;;;;9.13;8.02;;;8.60;83.10;;;;;;5084977;28;20021;-71
2021/03/21 12:22:40;;;;;;;8.77;7.95;;;8.40;82.40;;;;;;5089556;28;20020;-69
2021/03/21 12:25:23;;;;;;;8.85;7.18;;;8.60;83.20;;;;;;5085152;28;20380;-68
2021/03/21 12:27:53;;;;;;;8.10;5.70;;;8.60;81.70;;;;;;5081816;28;20044;-70
2021/03/21 12:30:33;;;;;;;7.05;6.28;;;8.60;80.80;;;;;;5091064;28;20020;-68
2021/03/21 12:33:34;;;;;;;8.13;7.30;;;8.40;81.00;;;;;;5091952;28;20471;-70
2021/03/21 12:36:05;;;;;;;6.80;6.10;;;8.60;83.30;;;;;;5084061;28;20513;-68
2021/03/21 12:38:58;;;;;;;10.82;8.43;;;8.50;81.40;;;;;;5089223;28;20025;-70
2021/03/21 12:41:34;;;;;;;9.23;6.80;;;8.60;82.60;;;;;;5083411;28;20128;-70
2021/03/21 12:44:25;;;;;;;7.55;6.43;;;8.50;81.70;;;;;;5077597;28;20099;-69
2021/03/21 12:46:57;;;;;;;13.15;7.68;;;8.60;80.70;;;;;;5092859;28;20020;-72
2021/03/21 12:49:38;;;;;;;8.85;6.90;;;8.90;81.50;;;;;;5080233;28;20063;-70
2021/03/21 12:52:07;;;;;;;7.40;6.00;;;8.90;82.00;;;;;;5087416;28;20016;-71
2021/03/21 12:54:34;;;;;;;7.97;6.85;;;9.00;81.10;;;;;;5091150;28;20478;-71
2021/03/21 12:56:59;;;;;;;9.73;6.38;;;9.20;81.20;;;;;;5093795;28;20024;-71
2021/03/21 12:59:25;;;;;;;6.90;6.20;;;9.20;80.50;;;;;;5091326;28;20024;-71
2021/03/21 13:01:51;;;;;;;9.07;7.25;;;9.10;80.50;;;;;;5090556;28;20487;-73
2021/03/21 13:04:17;;;;;;;8.68;7.10;;;9.30;80.50;;;;;;5092651;28;20026;-72
2021/03/21 13:06:43;;;;;;;8.93;7.97;;;9.50;80.40;;;;;;5093368;28;20498;-71
2021/03/21 13:09:09;;;;;;;10.80;7.90;;;9.60;82.30;;;;;;5092732;28;20032;-70
2021/03/21 13:11:37;;;;;;;9.90;7.40;;;9.80;81.30;;;;;;5092286;28;20559;-72
2021/03/21 13:14:04;;;;;;;12.38;7.55;;;9.70;79.20;;;;;;5095610;28;20020;-72
2021/03/21 13:16:30;;;;;;;10.63;6.15;;;9.60;76.40;;;;;;5092036;28;20073;-71
2021/03/21 13:18:55;;;;;;;7.40;6.15;;;9.30;75.60;;;;;;5093136;28;20024;-71
2021/03/21 13:21:22;;;;;;;10.63;6.63;;;9.30;76.80;;;;;;5081651;28;20032;-72
2021/03/21 13:23:48;;;;;;;10.00;5.63;;;9.30;77.90;;;;;;5092685;28;20024;-72
2021/03/21 13:26:14;;;;;;;9.85;7.85;;;9.50;77.00;;;;;;5092687;28;20522;-73
2021/03/21 13:28:39;;;;;;;8.57;6.80;;;9.70;77.80;;;;;;5088301;28;20107;-71
2021/03/21 13:31:06;;;;;;;5.90;5.30;;;9.70;76.00;;;;;;5089008;28;20089;-72
2021/03/21 13:33:34;;;;;;;9.38;8.20;;;9.90;76.90;;;;;;5091780;28;20109;-72
2021/03/21 13:36:00;;;;;;;9.23;6.70;;;10.00;75.90;;;;;;5090775;28;20105;-71
2021/03/21 13:38:27;;;;;;;6.60;5.90;;;9.80;74.60;;;;;;5085894;28;20032;-71
2021/03/21 13:40:55;;;;;;;7.18;5.15;;;9.90;73.30;;;;;;5088471;28;20044;-73
2021/03/21 13:43:22;;;;;;;5.90;5.40;;;10.10;73.70;;;;;;5088698;28;20085;-71
2021/03/21 13:45:51;;;;;;;7.00;5.38;;;10.30;73.30;;;;;;5092351;28;20522;-72
2021/03/21 13:48:16;;;;;;;8.80;6.97;;;10.10;72.80;;;;;;5090048;28;20047;-71
2021/03/21 13:50:44;;;;;;;5.78;5.03;;;10.20;72.40;;;;;;5086651;28;20755;-72